Terminal Aerodrome Forecast
Issued by NWS Lake Charles, LA

Home | Current Version | Previous Version | Text Only | Print | Product List | Glossary On
Versions: 1 2 3 4 5 6 7 8 9 10 11 12 13 14 15 16 17 18
000
FTUS44 KLCH 201731
TAFLCH
TAF
KLCH 201731Z 2018/2118 19008KT P6SM VCSH SCT025 BKN035 BKN250
      TEMPO 2018/2021 SCT020 BKN030 BKN250
     FM210100 17005KT P6SM SCT250
     FM210900 14002KT 4SM BR SCT250
      TEMPO 2111/2114 2SM BR BKN007=

USA.gov is the U.S. government's official web portal to all federal, state and local government web resources and services.